sensor_id;sensor_type;location;lat;lon;timestamp;P1;durP1;ratioP1;P2;durP2;ratioP2
67248;SDS011;54162;54.300;18.592;2022-07-10T00:01:06;6.87;;;1.23;;
67248;SDS011;54162;54.300;18.592;2022-07-10T00:03:31;5.03;;;1.10;;
67248;SDS011;54162;54.300;18.592;2022-07-10T00:05:57;5.10;;;1.48;;
67248;SDS011;54162;54.300;18.592;2022-07-10T00:08:22;7.28;;;1.30;;
67248;SDS011;54162;54.300;18.592;2022-07-10T00:10:48;6.43;;;1.40;;
67248;SDS011;54162;54.300;18.592;2022-07-10T00:13:13;4.40;;;1.10;;
67248;SDS011;54162;54.300;18.592;2022-07-10T00:15:39;5.43;;;1.33;;
67248;SDS011;54162;54.300;18.592;2022-07-10T00:18:04;4.95;;;1.42;;
67248;SDS011;54162;54.300;18.592;2022-07-10T00:20:29;7.93;;;1.37;;
67248;SDS011;54162;54.300;18.592;2022-07-10T00:22:55;6.77;;;1.37;;
67248;SDS011;54162;54.300;18.592;2022-07-10T00:25:20;6.13;;;1.30;;
67248;SDS011;54162;54.300;18.592;2022-07-10T00:27:46;7.35;;;1.35;;
67248;SDS011;54162;54.300;18.592;2022-07-10T00:30:11;10.73;;;1.80;;
67248;SDS011;54162;54.300;18.592;2022-07-10T00:32:37;7.33;;;1.40;;
67248;SDS011;54162;54.300;18.592;2022-07-10T00:35:03;5.73;;;1.13;;
67248;SDS011;54162;54.300;18.592;2022-07-10T00:37:29;5.43;;;1.13;;
67248;SDS011;54162;54.300;18.592;2022-07-10T00:39:54;4.33;;;1.20;;
67248;SDS011;54162;54.300;18.592;2022-07-10T00:42:20;4.90;;;1.20;;
67248;SDS011;54162;54.300;18.592;2022-07-10T00:44:46;4.60;;;1.20;;
67248;SDS011;54162;54.300;18.592;2022-07-10T00:47:12;5.77;;;1.20;;
67248;SDS011;54162;54.300;18.592;2022-07-10T00:49:39;7.25;;;1.50;;
67248;SDS011;54162;54.300;18.592;2022-07-10T00:52:09;8.25;;;1.50;;
67248;SDS011;54162;54.300;18.592;2022-07-10T00:54:36;6.05;;;1.30;;
67248;SDS011;54162;54.300;18.592;2022-07-10T00:57:03;6.78;;;1.90;;
67248;SDS011;54162;54.300;18.592;2022-07-10T00:59:33;9.30;;;1.50;;
67248;SDS011;54162;54.300;18.592;2022-07-10T01:01:59;6.43;;;1.13;;
67248;SDS011;54162;54.300;18.592;2022-07-10T01:04:25;5.65;;;1.70;;
67248;SDS011;54162;54.300;18.592;2022-07-10T01:06:51;5.25;;;1.50;;
67248;SDS011;54162;54.300;18.592;2022-07-10T01:09:17;6.65;;;1.50;;
67248;SDS011;54162;54.300;18.592;2022-07-10T01:11:43;6.63;;;1.50;;
67248;SDS011;54162;54.300;18.592;2022-07-10T01:14:09;7.65;;;1.60;;
67248;SDS011;54162;54.300;18.592;2022-07-10T01:16:35;8.03;;;1.60;;
67248;SDS011;54162;54.300;18.592;2022-07-10T01:19:01;7.32;;;1.42;;
67248;SDS011;54162;54.300;18.592;2022-07-10T01:21:27;4.50;;;1.40;;
67248;SDS011;54162;54.300;18.592;2022-07-10T01:23:57;7.88;;;1.38;;
67248;SDS011;54162;54.300;18.592;2022-07-10T01:26:24;6.55;;;1.70;;
67248;SDS011;54162;54.300;18.592;2022-07-10T01:28:51;8.45;;;1.35;;
67248;SDS011;54162;54.300;18.592;2022-07-10T01:31:23;4.53;;;1.50;;
67248;SDS011;54162;54.300;18.592;2022-07-10T01:33:50;7.43;;;1.47;;
67248;SDS011;54162;54.300;18.592;2022-07-10T01:36:16;5.95;;;1.48;;
67248;SDS011;54162;54.300;18.592;2022-07-10T01:38:42;6.78;;;1.50;;
67248;SDS011;54162;54.300;18.592;2022-07-10T01:41:07;7.60;;;1.40;;
67248;SDS011;54162;54.300;18.592;2022-07-10T01:43:34;8.55;;;1.70;;
67248;SDS011;54162;54.300;18.592;2022-07-10T01:46:00;7.05;;;1.30;;
67248;SDS011;54162;54.300;18.592;2022-07-10T01:48:26;8.32;;;1.83;;
67248;SDS011;54162;54.300;18.592;2022-07-10T01:50:51;8.87;;;1.50;;
67248;SDS011;54162;54.300;18.592;2022-07-10T01:53:17;13.97;;;2.13;;
67248;SDS011;54162;54.300;18.592;2022-07-10T01:55:42;8.37;;;1.83;;
67248;SDS011;54162;54.300;18.592;2022-07-10T01:58:08;7.57;;;1.27;;
67248;SDS011;54162;54.300;18.592;2022-07-10T02:00:33;7.00;;;1.50;;
67248;SDS011;54162;54.300;18.592;2022-07-10T02:02:59;10.40;;;2.20;;
67248;SDS011;54162;54.300;18.592;2022-07-10T02:05:43;5.43;;;1.55;;
67248;SDS011;54162;54.300;18.592;2022-07-10T02:08:08;12.90;;;1.73;;
67248;SDS011;54162;54.300;18.592;2022-07-10T02:10:34;4.63;;;1.50;;
67248;SDS011;54162;54.300;18.592;2022-07-10T02:12:59;6.13;;;1.53;;
67248;SDS011;54162;54.300;18.592;2022-07-10T02:15:25;8.23;;;1.60;;
67248;SDS011;54162;54.300;18.592;2022-07-10T02:17:51;6.17;;;1.43;;
67248;SDS011;54162;54.300;18.592;2022-07-10T02:20:16;7.82;;;1.58;;
67248;SDS011;54162;54.300;18.592;2022-07-10T02:22:42;5.17;;;1.40;;
67248;SDS011;54162;54.300;18.592;2022-07-10T02:25:07;8.00;;;1.93;;
67248;SDS011;54162;54.300;18.592;2022-07-10T02:27:33;7.07;;;1.80;;
67248;SDS011;54162;54.300;18.592;2022-07-10T02:29:59;7.27;;;1.87;;
67248;SDS011;54162;54.300;18.592;2022-07-10T02:32:24;6.05;;;1.38;;
67248;SDS011;54162;54.300;18.592;2022-07-10T02:34:50;6.30;;;1.50;;
67248;SDS011;54162;54.300;18.592;2022-07-10T02:37:15;6.53;;;1.57;;
67248;SDS011;54162;54.300;18.592;2022-07-10T02:39:41;6.95;;;1.60;;
67248;SDS011;54162;54.300;18.592;2022-07-10T02:42:06;6.83;;;1.30;;
67248;SDS011;54162;54.300;18.592;2022-07-10T02:44:32;6.97;;;1.67;;
67248;SDS011;54162;54.300;18.592;2022-07-10T02:46:57;5.87;;;1.60;;
67248;SDS011;54162;54.300;18.592;2022-07-10T02:49:23;4.68;;;1.33;;
67248;SDS011;54162;54.300;18.592;2022-07-10T02:51:48;6.53;;;1.50;;
67248;SDS011;54162;54.300;18.592;2022-07-10T02:54:14;7.97;;;1.57;;
67248;SDS011;54162;54.300;18.592;2022-07-10T02:56:39;5.70;;;1.50;;
67248;SDS011;54162;54.300;18.592;2022-07-10T02:59:04;6.75;;;1.80;;
67248;SDS011;54162;54.300;18.592;2022-07-10T03:01:31;10.23;;;2.10;;
67248;SDS011;54162;54.300;18.592;2022-07-10T03:03:57;8.43;;;1.58;;
67248;SDS011;54162;54.300;18.592;2022-07-10T03:06:22;8.50;;;1.73;;
67248;SDS011;54162;54.300;18.592;2022-07-10T03:08:48;7.53;;;1.90;;
67248;SDS011;54162;54.300;18.592;2022-07-10T03:11:14;8.37;;;1.80;;
67248;SDS011;54162;54.300;18.592;2022-07-10T03:13:39;9.85;;;2.20;;
67248;SDS011;54162;54.300;18.592;2022-07-10T03:16:05;8.47;;;2.17;;
67248;SDS011;54162;54.300;18.592;2022-07-10T03:18:31;8.13;;;1.80;;
67248;SDS011;54162;54.300;18.592;2022-07-10T03:20:56;8.52;;;1.80;;
67248;SDS011;54162;54.300;18.592;2022-07-10T03:23:22;10.63;;;2.33;;
67248;SDS011;54162;54.300;18.592;2022-07-10T03:25:47;7.17;;;2.10;;
67248;SDS011;54162;54.300;18.592;2022-07-10T03:28:13;8.65;;;2.33;;
67248;SDS011;54162;54.300;18.592;2022-07-10T03:30:38;9.97;;;2.37;;
67248;SDS011;54162;54.300;18.592;2022-07-10T03:33:04;9.37;;;2.33;;
67248;SDS011;54162;54.300;18.592;2022-07-10T03:35:29;11.97;;;2.43;;
67248;SDS011;54162;54.300;18.592;2022-07-10T03:37:56;8.27;;;2.10;;
67248;SDS011;54162;54.300;18.592;2022-07-10T03:40:22;5.93;;;2.10;;
67248;SDS011;54162;54.300;18.592;2022-07-10T03:42:47;9.97;;;2.33;;
67248;SDS011;54162;54.300;18.592;2022-07-10T03:45:13;10.85;;;2.30;;
67248;SDS011;54162;54.300;18.592;2022-07-10T03:47:38;10.20;;;2.40;;
67248;SDS011;54162;54.300;18.592;2022-07-10T03:50:04;9.20;;;2.20;;
67248;SDS011;54162;54.300;18.592;2022-07-10T03:52:30;8.85;;;2.25;;
67248;SDS011;54162;54.300;18.592;2022-07-10T03:54:56;11.33;;;2.17;;
67248;SDS011;54162;54.300;18.592;2022-07-10T03:57:21;5.00;;;1.83;;
67248;SDS011;54162;54.300;18.592;2022-07-10T04:00:06;6.90;;;1.83;;
67248;SDS011;54162;54.300;18.592;2022-07-10T04:02:32;7.63;;;1.75;;
67248;SDS011;54162;54.300;18.592;2022-07-10T04:04:57;6.83;;;1.77;;
67248;SDS011;54162;54.300;18.592;2022-07-10T04:07:23;9.40;;;1.50;;
67248;SDS011;54162;54.300;18.592;2022-07-10T04:09:48;4.88;;;1.50;;
67248;SDS011;54162;54.300;18.592;2022-07-10T04:12:13;6.57;;;1.53;;
67248;SDS011;54162;54.300;18.592;2022-07-10T04:14:39;5.87;;;1.57;;
67248;SDS011;54162;54.300;18.592;2022-07-10T04:17:04;8.90;;;1.60;;
67248;SDS011;54162;54.300;18.592;2022-07-10T04:19:30;5.50;;;1.50;;
67248;SDS011;54162;54.300;18.592;2022-07-10T04:21:55;6.70;;;1.60;;
67248;SDS011;54162;54.300;18.592;2022-07-10T04:24:20;5.10;;;1.30;;
67248;SDS011;54162;54.300;18.592;2022-07-10T04:26:46;5.20;;;1.20;;
67248;SDS011;54162;54.300;18.592;2022-07-10T04:29:11;5.23;;;1.30;;
67248;SDS011;54162;54.300;18.592;2022-07-10T04:31:37;4.20;;;1.27;;
67248;SDS011;54162;54.300;18.592;2022-07-10T04:34:02;6.82;;;1.55;;
67248;SDS011;54162;54.300;18.592;2022-07-10T04:36:28;7.27;;;1.50;;
67248;SDS011;54162;54.300;18.592;2022-07-10T04:38:55;8.57;;;1.83;;
67248;SDS011;54162;54.300;18.592;2022-07-10T04:41:21;7.43;;;1.40;;
67248;SDS011;54162;54.300;18.592;2022-07-10T04:43:46;4.37;;;1.30;;
67248;SDS011;54162;54.300;18.592;2022-07-10T04:46:11;3.90;;;1.00;;
67248;SDS011;54162;54.300;18.592;2022-07-10T04:48:37;6.23;;;1.10;;
67248;SDS011;54162;54.300;18.592;2022-07-10T04:51:02;4.50;;;1.10;;
67248;SDS011;54162;54.300;18.592;2022-07-10T04:53:28;4.57;;;1.23;;
67248;SDS011;54162;54.300;18.592;2022-07-10T04:55:53;5.10;;;1.40;;
67248;SDS011;54162;54.300;18.592;2022-07-10T04:58:19;5.10;;;1.10;;
67248;SDS011;54162;54.300;18.592;2022-07-10T05:00:44;5.53;;;1.40;;
67248;SDS011;54162;54.300;18.592;2022-07-10T05:03:10;3.90;;;1.47;;
67248;SDS011;54162;54.300;18.592;2022-07-10T05:05:35;9.10;;;1.57;;
67248;SDS011;54162;54.300;18.592;2022-07-10T05:08:00;5.75;;;1.35;;
67248;SDS011;54162;54.300;18.592;2022-07-10T05:10:26;7.87;;;1.40;;
67248;SDS011;54162;54.300;18.592;2022-07-10T05:12:52;6.35;;;1.40;;
67248;SDS011;54162;54.300;18.592;2022-07-10T05:15:17;5.13;;;1.33;;
67248;SDS011;54162;54.300;18.592;2022-07-10T05:17:43;4.87;;;1.30;;
67248;SDS011;54162;54.300;18.592;2022-07-10T05:20:09;6.75;;;1.20;;
67248;SDS011;54162;54.300;18.592;2022-07-10T05:22:35;4.20;;;1.30;;
67248;SDS011;54162;54.300;18.592;2022-07-10T05:25:00;5.88;;;1.38;;
67248;SDS011;54162;54.300;18.592;2022-07-10T05:27:26;4.67;;;1.10;;
67248;SDS011;54162;54.300;18.592;2022-07-10T05:29:51;5.03;;;1.10;;
67248;SDS011;54162;54.300;18.592;2022-07-10T05:32:17;5.03;;;1.00;;
67248;SDS011;54162;54.300;18.592;2022-07-10T05:34:42;5.43;;;1.20;;
67248;SDS011;54162;54.300;18.592;2022-07-10T05:37:08;5.00;;;1.20;;
67248;SDS011;54162;54.300;18.592;2022-07-10T05:39:33;5.47;;;1.10;;
67248;SDS011;54162;54.300;18.592;2022-07-10T05:41:59;5.20;;;1.10;;
67248;SDS011;54162;54.300;18.592;2022-07-10T05:44:25;7.63;;;1.10;;
67248;SDS011;54162;54.300;18.592;2022-07-10T05:46:50;3.85;;;1.02;;
67248;SDS011;54162;54.300;18.592;2022-07-10T05:49:16;4.03;;;0.90;;
67248;SDS011;54162;54.300;18.592;2022-07-10T05:51:41;5.55;;;1.20;;
67248;SDS011;54162;54.300;18.592;2022-07-10T05:54:07;4.65;;;1.00;;
67248;SDS011;54162;54.300;18.592;2022-07-10T05:56:33;4.03;;;1.00;;
67248;SDS011;54162;54.300;18.592;2022-07-10T05:58:59;3.78;;;1.00;;
67248;SDS011;54162;54.300;18.592;2022-07-10T06:01:25;4.50;;;0.90;;
67248;SDS011;54162;54.300;18.592;2022-07-10T06:03:53;5.15;;;1.20;;
67248;SDS011;54162;54.300;18.592;2022-07-10T06:06:19;4.13;;;1.00;;
67248;SDS011;54162;54.300;18.592;2022-07-10T06:08:44;7.00;;;1.23;;
67248;SDS011;54162;54.300;18.592;2022-07-10T06:11:10;5.70;;;1.52;;
67248;SDS011;54162;54.300;18.592;2022-07-10T06:13:37;4.82;;;0.90;;
67248;SDS011;54162;54.300;18.592;2022-07-10T06:16:02;6.40;;;1.20;;
67248;SDS011;54162;54.300;18.592;2022-07-10T06:18:29;5.75;;;1.30;;
67248;SDS011;54162;54.300;18.592;2022-07-10T06:20:55;5.57;;;1.03;;
67248;SDS011;54162;54.300;18.592;2022-07-10T06:23:20;7.07;;;1.42;;
67248;SDS011;54162;54.300;18.592;2022-07-10T06:25:46;4.95;;;1.45;;
67248;SDS011;54162;54.300;18.592;2022-07-10T06:28:13;4.32;;;1.20;;
67248;SDS011;54162;54.300;18.592;2022-07-10T06:30:39;5.82;;;1.23;;
67248;SDS011;54162;54.300;18.592;2022-07-10T06:33:04;5.47;;;1.30;;
67248;SDS011;54162;54.300;18.592;2022-07-10T06:35:30;6.07;;;1.17;;
67248;SDS011;54162;54.300;18.592;2022-07-10T06:37:55;5.47;;;1.37;;
67248;SDS011;54162;54.300;18.592;2022-07-10T06:40:20;4.07;;;1.20;;
67248;SDS011;54162;54.300;18.592;2022-07-10T06:42:46;3.45;;;1.30;;
67248;SDS011;54162;54.300;18.592;2022-07-10T06:45:12;4.95;;;1.10;;
67248;SDS011;54162;54.300;18.592;2022-07-10T06:47:37;5.40;;;1.40;;
67248;SDS011;54162;54.300;18.592;2022-07-10T06:50:22;4.78;;;1.20;;
67248;SDS011;54162;54.300;18.592;2022-07-10T06:52:50;6.15;;;1.30;;
67248;SDS011;54162;54.300;18.592;2022-07-10T06:55:15;5.80;;;1.40;;
67248;SDS011;54162;54.300;18.592;2022-07-10T06:57:42;4.55;;;1.17;;
67248;SDS011;54162;54.300;18.592;2022-07-10T07:00:08;4.85;;;1.23;;
67248;SDS011;54162;54.300;18.592;2022-07-10T07:02:34;4.68;;;1.40;;
67248;SDS011;54162;54.300;18.592;2022-07-10T07:05:00;3.60;;;1.20;;
67248;SDS011;54162;54.300;18.592;2022-07-10T07:07:26;3.93;;;1.37;;
67248;SDS011;54162;54.300;18.592;2022-07-10T07:09:51;5.70;;;1.33;;
67248;SDS011;54162;54.300;18.592;2022-07-10T07:12:17;4.18;;;1.40;;
67248;SDS011;54162;54.300;18.592;2022-07-10T07:14:43;4.20;;;1.00;;
67248;SDS011;54162;54.300;18.592;2022-07-10T07:17:08;5.80;;;1.50;;
67248;SDS011;54162;54.300;18.592;2022-07-10T07:19:36;3.90;;;1.00;;
67248;SDS011;54162;54.300;18.592;2022-07-10T07:22:20;7.05;;;1.25;;
67248;SDS011;54162;54.300;18.592;2022-07-10T07:25:06;3.50;;;1.00;;
67248;SDS011;54162;54.300;18.592;2022-07-10T07:27:33;3.95;;;1.00;;
67248;SDS011;54162;54.300;18.592;2022-07-10T07:30:18;6.05;;;1.15;;
67248;SDS011;54162;54.300;18.592;2022-07-10T07:32:44;5.17;;;1.10;;
67248;SDS011;54162;54.300;18.592;2022-07-10T07:35:11;5.05;;;1.10;;
67248;SDS011;54162;54.300;18.592;2022-07-10T07:37:38;3.97;;;1.27;;
67248;SDS011;54162;54.300;18.592;2022-07-10T07:40:12;5.72;;;1.42;;
67248;SDS011;54162;54.300;18.592;2022-07-10T07:42:41;5.20;;;1.50;;
67248;SDS011;54162;54.300;18.592;2022-07-10T07:45:07;6.80;;;1.60;;
67248;SDS011;54162;54.300;18.592;2022-07-10T07:50:10;5.97;;;1.38;;
67248;SDS011;54162;54.300;18.592;2022-07-10T07:52:36;5.45;;;1.20;;
67248;SDS011;54162;54.300;18.592;2022-07-10T07:55:02;5.23;;;1.30;;
67248;SDS011;54162;54.300;18.592;2022-07-10T07:57:28;6.53;;;1.60;;
67248;SDS011;54162;54.300;18.592;2022-07-10T07:59:53;3.87;;;1.10;;
67248;SDS011;54162;54.300;18.592;2022-07-10T08:02:19;4.37;;;1.13;;
67248;SDS011;54162;54.300;18.592;2022-07-10T08:04:44;3.60;;;1.50;;
67248;SDS011;54162;54.300;18.592;2022-07-10T08:07:09;5.18;;;1.50;;
67248;SDS011;54162;54.300;18.592;2022-07-10T08:09:35;4.90;;;1.30;;
67248;SDS011;54162;54.300;18.592;2022-07-10T08:12:00;4.93;;;1.23;;
67248;SDS011;54162;54.300;18.592;2022-07-10T08:14:26;5.07;;;1.40;;
67248;SDS011;54162;54.300;18.592;2022-07-10T08:16:51;4.82;;;1.20;;
67248;SDS011;54162;54.300;18.592;2022-07-10T08:19:17;3.33;;;0.90;;
67248;SDS011;54162;54.300;18.592;2022-07-10T08:21:42;4.50;;;1.00;;
67248;SDS011;54162;54.300;18.592;2022-07-10T08:24:08;5.82;;;1.40;;
67248;SDS011;54162;54.300;18.592;2022-07-10T08:26:34;5.17;;;1.40;;
67248;SDS011;54162;54.300;18.592;2022-07-10T08:28:59;4.50;;;1.20;;
67248;SDS011;54162;54.300;18.592;2022-07-10T08:31:25;8.20;;;1.35;;
67248;SDS011;54162;54.300;18.592;2022-07-10T08:33:50;4.07;;;1.50;;
67248;SDS011;54162;54.300;18.592;2022-07-10T08:36:17;4.18;;;1.25;;
67248;SDS011;54162;54.300;18.592;2022-07-10T08:38:42;5.87;;;1.47;;
67248;SDS011;54162;54.300;18.592;2022-07-10T08:41:08;6.67;;;1.87;;
67248;SDS011;54162;54.300;18.592;2022-07-10T08:43:36;5.38;;;1.50;;
67248;SDS011;54162;54.300;18.592;2022-07-10T08:46:02;5.47;;;1.40;;
67248;SDS011;54162;54.300;18.592;2022-07-10T08:48:27;4.75;;;1.17;;
67248;SDS011;54162;54.300;18.592;2022-07-10T08:50:58;6.53;;;1.60;;
67248;SDS011;54162;54.300;18.592;2022-07-10T08:53:30;4.88;;;1.33;;
67248;SDS011;54162;54.300;18.592;2022-07-10T08:55:59;4.70;;;1.20;;
67248;SDS011;54162;54.300;18.592;2022-07-10T08:58:26;5.43;;;1.38;;
67248;SDS011;54162;54.300;18.592;2022-07-10T09:00:52;4.63;;;1.20;;
67248;SDS011;54162;54.300;18.592;2022-07-10T09:03:18;6.40;;;1.30;;
67248;SDS011;54162;54.300;18.592;2022-07-10T09:05:44;7.00;;;1.25;;
67248;SDS011;54162;54.300;18.592;2022-07-10T09:13:50;4.88;;;1.30;;
67248;SDS011;54162;54.300;18.592;2022-07-10T09:18:48;4.25;;;1.30;;
67248;SDS011;54162;54.300;18.592;2022-07-10T09:21:13;6.72;;;1.63;;
67248;SDS011;54162;54.300;18.592;2022-07-10T09:23:39;5.13;;;1.60;;
67248;SDS011;54162;54.300;18.592;2022-07-10T09:26:04;5.30;;;1.50;;
67248;SDS011;54162;54.300;18.592;2022-07-10T09:28:30;8.13;;;1.60;;
67248;SDS011;54162;54.300;18.592;2022-07-10T09:30:55;5.67;;;1.60;;
67248;SDS011;54162;54.300;18.592;2022-07-10T09:33:25;5.63;;;1.30;;
67248;SDS011;54162;54.300;18.592;2022-07-10T09:41:37;4.65;;;1.30;;
67248;SDS011;54162;54.300;18.592;2022-07-10T09:43:58;4.50;;;1.40;;
67248;SDS011;54162;54.300;18.592;2022-07-10T09:46:28;4.17;;;1.20;;
67248;SDS011;54162;54.300;18.592;2022-07-10T09:49:09;4.68;;;1.10;;
67248;SDS011;54162;54.300;18.592;2022-07-10T09:51:37;3.58;;;1.10;;
67248;SDS011;54162;54.300;18.592;2022-07-10T09:54:05;5.20;;;1.20;;
67248;SDS011;54162;54.300;18.592;2022-07-10T09:56:42;3.88;;;1.00;;
67248;SDS011;54162;54.300;18.592;2022-07-10T09:59:10;5.53;;;1.00;;
67248;SDS011;54162;54.300;18.592;2022-07-10T10:01:37;4.63;;;0.95;;
67248;SDS011;54162;54.300;18.592;2022-07-10T10:04:07;5.97;;;1.15;;
67248;SDS011;54162;54.300;18.592;2022-07-10T10:06:34;4.45;;;1.10;;
67248;SDS011;54162;54.300;18.592;2022-07-10T10:09:08;7.18;;;1.38;;
67248;SDS011;54162;54.300;18.592;2022-07-10T10:12:07;9.60;;;1.20;;
67248;SDS011;54162;54.300;18.592;2022-07-10T10:14:37;4.40;;;1.10;;
67248;SDS011;54162;54.300;18.592;2022-07-10T10:17:05;5.03;;;1.23;;
67248;SDS011;54162;54.300;18.592;2022-07-10T10:19:31;5.15;;;1.20;;
67248;SDS011;54162;54.300;18.592;2022-07-10T10:22:17;5.63;;;1.25;;
67248;SDS011;54162;54.300;18.592;2022-07-10T10:24:44;4.60;;;1.20;;
67248;SDS011;54162;54.300;18.592;2022-07-10T10:27:11;4.22;;;1.10;;
67248;SDS011;54162;54.300;18.592;2022-07-10T10:29:37;6.53;;;1.10;;
67248;SDS011;54162;54.300;18.592;2022-07-10T10:32:04;5.55;;;1.23;;
67248;SDS011;54162;54.300;18.592;2022-07-10T10:34:41;6.40;;;1.30;;
67248;SDS011;54162;54.300;18.592;2022-07-10T10:39:52;4.55;;;1.15;;
67248;SDS011;54162;54.300;18.592;2022-07-10T10:42:34;5.28;;;1.23;;
67248;SDS011;54162;54.300;18.592;2022-07-10T10:48:00;4.63;;;1.50;;
67248;SDS011;54162;54.300;18.592;2022-07-10T10:50:39;4.68;;;1.20;;
67248;SDS011;54162;54.300;18.592;2022-07-10T10:53:35;5.30;;;1.40;;
67248;SDS011;54162;54.300;18.592;2022-07-10T10:58:35;6.07;;;1.60;;
67248;SDS011;54162;54.300;18.592;2022-07-10T11:01:05;5.85;;;1.50;;
67248;SDS011;54162;54.300;18.592;2022-07-10T11:03:31;6.30;;;1.60;;
67248;SDS011;54162;54.300;18.592;2022-07-10T11:05:57;5.75;;;1.60;;
67248;SDS011;54162;54.300;18.592;2022-07-10T11:08:35;4.43;;;1.40;;
67248;SDS011;54162;54.300;18.592;2022-07-10T11:11:36;9.68;;;1.75;;
67248;SDS011;54162;54.300;18.592;2022-07-10T11:13:57;6.70;;;1.48;;
67248;SDS011;54162;54.300;18.592;2022-07-10T11:16:23;6.47;;;1.40;;
67248;SDS011;54162;54.300;18.592;2022-07-10T11:18:52;5.25;;;1.70;;
67248;SDS011;54162;54.300;18.592;2022-07-10T11:21:27;5.13;;;1.63;;
67248;SDS011;54162;54.300;18.592;2022-07-10T11:26:24;5.90;;;1.40;;
67248;SDS011;54162;54.300;18.592;2022-07-10T11:29:12;7.57;;;1.85;;
67248;SDS011;54162;54.300;18.592;2022-07-10T11:31:43;6.60;;;1.55;;
67248;SDS011;54162;54.300;18.592;2022-07-10T11:34:17;9.03;;;1.57;;
67248;SDS011;54162;54.300;18.592;2022-07-10T11:36:43;5.90;;;1.70;;
67248;SDS011;54162;54.300;18.592;2022-07-10T11:39:09;5.43;;;1.60;;
67248;SDS011;54162;54.300;18.592;2022-07-10T11:41:42;5.53;;;1.50;;
67248;SDS011;54162;54.300;18.592;2022-07-10T11:44:13;7.65;;;2.10;;
67248;SDS011;54162;54.300;18.592;2022-07-10T11:46:41;5.78;;;1.60;;
67248;SDS011;54162;54.300;18.592;2022-07-10T11:49:09;7.50;;;1.90;;
67248;SDS011;54162;54.300;18.592;2022-07-10T11:51:36;5.68;;;1.70;;
67248;SDS011;54162;54.300;18.592;2022-07-10T11:56:33;6.07;;;1.27;;
67248;SDS011;54162;54.300;18.592;2022-07-10T11:59:08;4.30;;;1.30;;
67248;SDS011;54162;54.300;18.592;2022-07-10T12:01:40;7.10;;;1.20;;
67248;SDS011;54162;54.300;18.592;2022-07-10T12:04:07;5.20;;;1.20;;
67248;SDS011;54162;54.300;18.592;2022-07-10T12:06:35;5.30;;;0.90;;
67248;SDS011;54162;54.300;18.592;2022-07-10T12:09:07;3.22;;;1.00;;
67248;SDS011;54162;54.300;18.592;2022-07-10T12:11:37;4.13;;;0.80;;
67248;SDS011;54162;54.300;18.592;2022-07-10T12:14:11;3.40;;;0.80;;
67248;SDS011;54162;54.300;18.592;2022-07-10T12:16:44;2.85;;;0.70;;
67248;SDS011;54162;54.300;18.592;2022-07-10T12:19:14;4.10;;;0.90;;
67248;SDS011;54162;54.300;18.592;2022-07-10T12:21:41;3.65;;;0.80;;
67248;SDS011;54162;54.300;18.592;2022-07-10T12:24:08;3.97;;;0.80;;
67248;SDS011;54162;54.300;18.592;2022-07-10T12:26:35;4.95;;;0.88;;
67248;SDS011;54162;54.300;18.592;2022-07-10T12:29:02;2.85;;;0.70;;
67248;SDS011;54162;54.300;18.592;2022-07-10T12:31:29;5.55;;;1.35;;
67248;SDS011;54162;54.300;18.592;2022-07-10T12:33:57;4.93;;;0.95;;
67248;SDS011;54162;54.300;18.592;2022-07-10T12:36:26;6.68;;;0.90;;
67248;SDS011;54162;54.300;18.592;2022-07-10T12:39:05;3.30;;;1.00;;
67248;SDS011;54162;54.300;18.592;2022-07-10T12:41:30;3.30;;;1.00;;
67248;SDS011;54162;54.300;18.592;2022-07-10T12:43:56;4.60;;;0.80;;
67248;SDS011;54162;54.300;18.592;2022-07-10T12:46:24;5.40;;;0.70;;
67248;SDS011;54162;54.300;18.592;2022-07-10T12:51:28;4.47;;;0.65;;
67248;SDS011;54162;54.300;18.592;2022-07-10T12:53:55;3.90;;;0.90;;
67248;SDS011;54162;54.300;18.592;2022-07-10T12:59:04;4.63;;;0.80;;
67248;SDS011;54162;54.300;18.592;2022-07-10T13:01:41;3.47;;;0.60;;
67248;SDS011;54162;54.300;18.592;2022-07-10T13:04:10;5.38;;;0.70;;
67248;SDS011;54162;54.300;18.592;2022-07-10T13:06:37;5.07;;;1.70;;
67248;SDS011;54162;54.300;18.592;2022-07-10T13:09:24;2.67;;;1.20;;
67248;SDS011;54162;54.300;18.592;2022-07-10T13:11:50;4.43;;;1.55;;
67248;SDS011;54162;54.300;18.592;2022-07-10T13:14:17;4.82;;;0.90;;
67248;SDS011;54162;54.300;18.592;2022-07-10T13:17:00;3.97;;;1.20;;
67248;SDS011;54162;54.300;18.592;2022-07-10T13:19:25;3.72;;;0.80;;
67248;SDS011;54162;54.300;18.592;2022-07-10T13:21:51;4.70;;;1.10;;
67248;SDS011;54162;54.300;18.592;2022-07-10T13:24:16;5.00;;;1.00;;
67248;SDS011;54162;54.300;18.592;2022-07-10T13:26:42;6.40;;;1.00;;
67248;SDS011;54162;54.300;18.592;2022-07-10T13:29:08;3.60;;;0.90;;
67248;SDS011;54162;54.300;18.592;2022-07-10T13:31:33;4.00;;;0.73;;
67248;SDS011;54162;54.300;18.592;2022-07-10T13:33:59;5.17;;;1.00;;
67248;SDS011;54162;54.300;18.592;2022-07-10T13:36:24;4.20;;;1.15;;
67248;SDS011;54162;54.300;18.592;2022-07-10T13:38:50;4.88;;;1.00;;
67248;SDS011;54162;54.300;18.592;2022-07-10T13:41:17;4.53;;;0.90;;
67248;SDS011;54162;54.300;18.592;2022-07-10T13:43:43;7.20;;;1.00;;
67248;SDS011;54162;54.300;18.592;2022-07-10T13:46:08;4.68;;;1.00;;
67248;SDS011;54162;54.300;18.592;2022-07-10T13:48:34;4.80;;;0.87;;
67248;SDS011;54162;54.300;18.592;2022-07-10T13:50:59;4.57;;;1.03;;
67248;SDS011;54162;54.300;18.592;2022-07-10T13:53:25;5.85;;;1.10;;
67248;SDS011;54162;54.300;18.592;2022-07-10T13:55:51;3.95;;;1.10;;
67248;SDS011;54162;54.300;18.592;2022-07-10T13:58:17;5.47;;;0.93;;
67248;SDS011;54162;54.300;18.592;2022-07-10T14:00:43;3.27;;;0.90;;
67248;SDS011;54162;54.300;18.592;2022-07-10T14:03:09;3.85;;;0.80;;
67248;SDS011;54162;54.300;18.592;2022-07-10T14:05:35;3.87;;;0.90;;
67248;SDS011;54162;54.300;18.592;2022-07-10T14:08:00;4.47;;;0.90;;
67248;SDS011;54162;54.300;18.592;2022-07-10T14:10:26;4.13;;;1.10;;
67248;SDS011;54162;54.300;18.592;2022-07-10T14:12:52;3.47;;;0.80;;
67248;SDS011;54162;54.300;18.592;2022-07-10T14:15:18;4.22;;;0.90;;
67248;SDS011;54162;54.300;18.592;2022-07-10T14:17:44;3.15;;;0.98;;
67248;SDS011;54162;54.300;18.592;2022-07-10T14:20:10;3.83;;;0.90;;
67248;SDS011;54162;54.300;18.592;2022-07-10T14:22:36;5.00;;;1.10;;
67248;SDS011;54162;54.300;18.592;2022-07-10T14:25:02;4.18;;;0.88;;
67248;SDS011;54162;54.300;18.592;2022-07-10T14:27:29;2.73;;;0.70;;
67248;SDS011;54162;54.300;18.592;2022-07-10T14:29:56;2.97;;;0.80;;
67248;SDS011;54162;54.300;18.592;2022-07-10T14:32:22;5.45;;;1.00;;
67248;SDS011;54162;54.300;18.592;2022-07-10T14:34:48;6.50;;;1.20;;
67248;SDS011;54162;54.300;18.592;2022-07-10T14:37:13;7.43;;;1.00;;
67248;SDS011;54162;54.300;18.592;2022-07-10T14:39:38;4.30;;;1.35;;
67248;SDS011;54162;54.300;18.592;2022-07-10T14:42:04;4.03;;;0.98;;
67248;SDS011;54162;54.300;18.592;2022-07-10T14:44:30;6.63;;;1.17;;
67248;SDS011;54162;54.300;18.592;2022-07-10T14:46:57;5.57;;;1.10;;
67248;SDS011;54162;54.300;18.592;2022-07-10T14:49:22;5.93;;;1.10;;
67248;SDS011;54162;54.300;18.592;2022-07-10T14:51:48;2.80;;;0.80;;
67248;SDS011;54162;54.300;18.592;2022-07-10T14:54:13;3.88;;;1.00;;
67248;SDS011;54162;54.300;18.592;2022-07-10T14:56:39;6.33;;;1.30;;
67248;SDS011;54162;54.300;18.592;2022-07-10T14:59:04;5.90;;;1.30;;
67248;SDS011;54162;54.300;18.592;2022-07-10T15:01:29;4.30;;;1.07;;
67248;SDS011;54162;54.300;18.592;2022-07-10T15:03:55;5.65;;;1.30;;
67248;SDS011;54162;54.300;18.592;2022-07-10T15:06:22;3.60;;;1.15;;
67248;SDS011;54162;54.300;18.592;2022-07-10T15:08:48;6.50;;;0.93;;